createdAt,value
2023-04-28T00:00:11.826Z,19.32
2023-04-28T00:02:41.686Z,17.37
2023-04-28T00:05:11.152Z,21.75
2023-04-28T00:07:40.578Z,20.32
2023-04-28T00:10:10.881Z,18.12
2023-04-28T00:12:40.144Z,19.00
2023-04-28T00:15:10.042Z,19.45
2023-04-28T00:17:39.661Z,22.07
2023-04-28T00:20:10.228Z,17.67
2023-04-28T00:22:39.703Z,17.05
2023-04-28T00:25:09.579Z,21.68
2023-04-28T00:27:38.963Z,17.50
2023-04-28T00:30:09.424Z,19.35
2023-04-28T00:32:38.773Z,18.75
2023-04-28T00:35:08.880Z,20.43
2023-04-28T00:37:39.245Z,19.07
2023-04-28T00:40:09.365Z,20.52
2023-04-28T00:42:38.625Z,17.30
2023-04-28T00:45:08.672Z,18.37
2023-04-28T00:47:38.486Z,24.72
2023-04-28T00:50:10.451Z,20.65
2023-04-28T00:52:40.309Z,19.27
2023-04-28T00:55:11.151Z,20.80
2023-04-28T00:57:40.529Z,19.07
2023-04-28T01:00:10.821Z,20.32
2023-04-28T01:02:40.390Z,18.60
2023-04-28T01:05:10.613Z,18.40
2023-04-28T01:07:39.946Z,20.60
2023-04-28T01:10:11.099Z,19.37
2023-04-28T01:12:40.551Z,19.02
2023-04-28T01:15:13.521Z,19.45
2023-04-28T01:17:44.096Z,18.48
2023-04-28T01:20:14.299Z,18.98
2023-04-28T01:22:44.301Z,18.80
2023-04-28T01:25:13.699Z,19.23
2023-04-28T01:27:43.049Z,20.10
2023-04-28T01:30:12.710Z,21.40
2023-04-28T01:32:42.070Z,22.37
2023-04-28T01:35:11.353Z,18.98
2023-04-28T01:37:41.192Z,20.27
2023-04-28T01:40:11.299Z,17.95
2023-04-28T01:42:40.869Z,17.37
2023-04-28T01:45:11.080Z,19.32
2023-04-28T01:47:40.474Z,22.20
2023-04-28T01:50:10.237Z,20.88
2023-04-28T01:52:39.745Z,19.10
2023-04-28T01:55:09.647Z,20.37
2023-04-28T01:57:39.436Z,19.50
2023-04-28T02:00:09.773Z,17.48
2023-04-28T02:02:41.002Z,18.57
2023-04-28T02:05:11.141Z,22.77
2023-04-28T02:07:41.667Z,19.57
2023-04-28T02:10:11.371Z,23.02
2023-04-28T02:12:42.723Z,20.02
2023-04-28T02:15:12.394Z,20.70
2023-04-28T02:17:41.701Z,20.20
2023-04-28T02:20:11.925Z,21.05
2023-04-28T02:22:41.568Z,19.50
2023-04-28T02:25:14.245Z,21.90
2023-04-28T02:30:13.468Z,19.95
2023-04-28T02:32:42.811Z,19.65
2023-04-28T02:35:12.450Z,21.37
2023-04-28T02:37:41.984Z,21.70
2023-04-28T02:40:12.050Z,20.77
2023-04-28T02:42:41.323Z,20.90
2023-04-28T02:45:11.994Z,22.98
2023-04-28T02:47:41.466Z,22.22
2023-04-28T02:50:11.688Z,21.65
2023-04-28T02:52:41.099Z,19.30
2023-04-28T02:55:11.115Z,21.23
2023-04-28T02:57:40.471Z,22.37
2023-04-28T03:00:10.972Z,21.70
2023-04-28T03:02:41.962Z,22.35
2023-04-28T03:05:11.416Z,20.55
2023-04-28T03:07:41.071Z,22.93
2023-04-28T03:10:11.722Z,21.90
2023-04-28T03:12:41.348Z,20.90
2023-04-28T03:15:12.731Z,22.67
2023-04-28T03:17:43.434Z,23.50
2023-04-28T03:20:13.368Z,27.55
2023-04-28T03:22:43.005Z,20.92
2023-04-28T03:25:13.788Z,22.82
2023-04-28T03:27:44.720Z,26.15
2023-04-28T03:30:14.458Z,23.22
2023-04-28T03:32:43.836Z,24.20
2023-04-28T03:35:13.903Z,25.62
2023-04-28T03:37:44.720Z,22.00
2023-04-28T03:40:14.071Z,22.90
2023-04-28T03:42:51.030Z,21.80
2023-04-28T03:45:22.273Z,23.02
2023-04-28T03:47:51.633Z,25.05
2023-04-28T03:50:21.151Z,21.87
2023-04-28T03:52:50.528Z,23.25
2023-04-28T03:55:20.008Z,24.85
2023-04-28T03:57:49.428Z,25.17
2023-04-28T04:00:20.992Z,27.73
2023-04-28T04:02:50.472Z,20.43
2023-04-28T04:05:20.422Z,22.98
2023-04-28T04:07:49.824Z,22.98
2023-04-28T04:10:19.372Z,25.97
2023-04-28T04:12:49.823Z,22.07
2023-04-28T04:15:20.125Z,22.45
2023-04-28T04:17:49.922Z,24.20
2023-04-28T04:20:19.318Z,23.57
2023-04-28T04:22:48.634Z,24.02
2023-04-28T04:25:17.907Z,24.82
2023-04-28T04:27:48.899Z,27.35
2023-04-28T04:30:18.492Z,25.65
2023-04-28T04:32:47.850Z,23.95
2023-04-28T04:35:17.609Z,24.37
2023-04-28T04:37:46.957Z,28.25
2023-04-28T04:40:17.790Z,26.52
2023-04-28T04:42:48.777Z,26.60
2023-04-28T04:45:19.970Z,26.45
2023-04-28T04:47:49.734Z,25.27
2023-04-28T04:50:19.896Z,26.68
2023-04-28T04:52:49.250Z,28.32
2023-04-28T04:55:19.564Z,26.00
2023-04-28T04:57:49.111Z,27.02
2023-04-28T05:00:38.720Z,31.07
2023-04-28T05:05:38.061Z,27.80
2023-04-28T05:08:09.027Z,24.07
2023-04-28T05:10:38.509Z,26.60
2023-04-28T05:13:07.813Z,26.93
2023-04-28T05:15:37.369Z,28.45
2023-04-28T05:18:11.473Z,29.18
2023-04-28T05:20:41.312Z,30.12
2023-04-28T05:23:10.796Z,28.32
2023-04-28T05:25:40.235Z,28.40
2023-04-28T05:28:13.411Z,27.93
2023-04-28T05:30:44.905Z,30.15
2023-04-28T05:33:14.865Z,29.05
2023-04-28T05:35:44.724Z,30.60
2023-04-28T05:38:14.185Z,29.92
2023-04-28T05:40:44.815Z,29.82
2023-04-28T05:43:14.676Z,30.95
2023-04-28T05:45:44.482Z,32.40
2023-04-28T05:48:16.275Z,35.13
2023-04-28T05:50:46.536Z,36.08
2023-04-28T05:53:15.972Z,36.28
2023-04-28T05:55:45.390Z,33.85
2023-04-28T05:58:16.101Z,34.98
2023-04-28T06:00:45.646Z,33.25
2023-04-28T06:03:16.812Z,37.10
2023-04-28T06:05:47.648Z,35.50
2023-04-28T06:08:17.490Z,39.30
2023-04-28T06:10:47.183Z,37.38
2023-04-28T06:13:16.891Z,37.70
2023-04-28T06:15:46.255Z,35.85
2023-04-28T06:18:16.526Z,37.70
2023-04-28T06:20:45.756Z,38.88
2023-04-28T06:23:15.542Z,40.30
2023-04-28T06:25:49.309Z,36.40
2023-04-28T06:28:18.627Z,39.08
2023-04-28T06:30:47.913Z,36.13
2023-04-28T06:33:17.574Z,35.85
2023-04-28T06:35:47.081Z,40.28
2023-04-28T06:38:17.581Z,37.38
2023-04-28T06:40:47.064Z,37.13
2023-04-28T06:43:17.245Z,37.80
2023-04-28T06:45:48.386Z,38.70
2023-04-28T06:48:18.247Z,38.40
2023-04-28T06:50:47.516Z,35.83
2023-04-28T06:53:17.198Z,37.13
2023-04-28T06:55:46.567Z,38.83
2023-04-28T06:58:16.473Z,42.83
2023-04-28T07:00:45.866Z,39.42
2023-04-28T07:03:15.259Z,41.45
2023-04-28T07:05:44.981Z,41.00
2023-04-28T07:08:14.356Z,40.73
2023-04-28T07:10:43.993Z,45.40
2023-04-28T07:13:13.618Z,43.95
2023-04-28T07:15:42.951Z,40.73
2023-04-28T07:18:12.637Z,40.63
2023-04-28T07:20:43.588Z,43.05
2023-04-28T07:23:12.982Z,45.20
2023-04-28T07:25:42.940Z,45.43
2023-04-28T07:28:12.390Z,50.15
2023-04-28T07:30:41.937Z,44.53
2023-04-28T07:33:11.596Z,47.27
2023-04-28T07:35:41.049Z,46.37
2023-04-28T07:38:10.928Z,44.15
2023-04-28T07:40:40.442Z,48.48
2023-04-28T07:43:09.716Z,48.40
2023-04-28T07:45:42.250Z,48.15
2023-04-28T07:48:12.630Z,48.92
2023-04-28T07:50:41.980Z,50.85
2023-04-28T07:53:11.388Z,46.13
2023-04-28T07:55:42.324Z,44.40
2023-04-28T07:58:12.184Z,45.28
2023-04-28T08:00:41.708Z,45.55
2023-04-28T08:03:11.692Z,49.75
2023-04-28T08:05:42.311Z,45.45
2023-04-28T08:08:11.994Z,46.48
2023-04-28T08:10:43.762Z,47.88
2023-04-28T08:13:13.054Z,47.33
2023-04-28T08:15:42.547Z,48.33
2023-04-28T08:18:12.177Z,46.30
2023-04-28T08:20:41.638Z,48.80
2023-04-28T08:23:11.626Z,44.48
2023-04-28T08:25:41.633Z,49.42
2023-04-28T08:28:10.966Z,46.18
2023-04-28T08:30:40.491Z,43.35
2023-04-28T08:33:09.833Z,44.93
2023-04-28T08:35:40.116Z,43.68
2023-04-28T08:38:11.043Z,41.65
2023-04-28T08:40:42.356Z,40.60
2023-04-28T08:43:12.196Z,43.52
2023-04-28T08:45:43.519Z,39.88
2023-04-28T08:48:20.099Z,41.42
2023-04-28T08:50:54.742Z,41.73
2023-04-28T08:53:26.769Z,39.35
2023-04-28T08:55:57.892Z,41.33
2023-04-28T08:58:28.438Z,40.05
2023-04-28T09:00:57.773Z,42.98
2023-04-28T09:03:28.398Z,43.75
2023-04-28T09:05:58.594Z,45.10
2023-04-28T09:08:28.901Z,44.93
2023-04-28T09:11:12.454Z,51.13
2023-04-28T09:13:42.908Z,47.27
2023-04-28T09:16:13.084Z,45.10
2023-04-28T09:18:43.682Z,43.05
2023-04-28T09:21:13.448Z,46.83
2023-04-28T09:23:50.888Z,47.25
2023-04-28T09:26:20.172Z,49.13
2023-04-28T09:28:49.893Z,48.25
2023-04-28T09:31:28.388Z,49.00
2023-04-28T09:33:59.220Z,49.65
2023-04-28T09:36:31.057Z,48.05
2023-04-28T09:39:01.278Z,51.02
2023-04-28T09:41:45.409Z,46.98
2023-04-28T09:44:19.568Z,48.02
2023-04-28T09:46:49.767Z,51.68
2023-04-28T09:49:19.032Z,45.00
2023-04-28T09:51:48.513Z,45.17
2023-04-28T09:55:04.084Z,41.55
2023-04-28T09:57:35.526Z,38.70
2023-04-28T10:00:06.829Z,30.70
2023-04-28T10:07:40.873Z,27.45
2023-04-28T10:10:10.870Z,29.35
2023-04-28T10:12:41.248Z,31.25
2023-04-28T10:15:12.029Z,28.80
2023-04-28T10:17:41.808Z,28.98
2023-04-28T10:20:12.722Z,27.17
2023-04-28T10:23:04.720Z,25.80
2023-04-28T10:25:36.020Z,29.10
2023-04-28T10:28:10.039Z,30.88
2023-04-28T10:30:39.302Z,26.07
2023-04-28T10:33:18.151Z,30.15
2023-04-28T10:35:48.459Z,26.48
2023-04-28T10:38:21.686Z,23.40
2023-04-28T10:40:52.505Z,25.72
2023-04-28T10:43:38.063Z,22.25
2023-04-28T10:46:09.050Z,20.37
2023-04-28T10:48:54.309Z,18.75
2023-04-28T10:51:24.472Z,22.00
2023-04-28T10:53:57.297Z,20.32
2023-04-28T10:56:28.208Z,18.50
2023-04-28T10:59:01.087Z,18.07
2023-04-28T11:01:33.378Z,22.70
2023-04-28T11:04:17.861Z,17.32
2023-04-28T11:06:49.295Z,19.73
2023-04-28T11:09:22.987Z,18.27
2023-04-28T11:12:06.953Z,18.67
2023-04-28T11:14:37.937Z,18.82
2023-04-28T11:17:13.645Z,17.10
2023-04-28T11:19:49.579Z,16.85
2023-04-28T11:22:24.008Z,17.17
2023-04-28T11:24:57.933Z,17.05
2023-04-28T11:27:28.640Z,19.12
2023-04-28T11:29:58.625Z,18.35
2023-04-28T11:32:35.695Z,22.85
2023-04-28T11:35:07.291Z,23.35
2023-04-28T11:37:36.579Z,26.57
2023-04-28T11:40:13.131Z,24.92
2023-04-28T11:42:51.472Z,23.10
2023-04-28T11:45:21.533Z,24.65
2023-04-28T11:47:50.954Z,23.35
2023-04-28T11:50:38.825Z,21.65
2023-04-28T11:53:08.107Z,21.57
2023-04-28T11:55:38.761Z,23.75
2023-04-28T11:58:19.084Z,24.70
2023-04-28T12:01:09.330Z,22.90
2023-04-28T12:03:49.252Z,23.18
2023-04-28T12:06:19.270Z,25.32
2023-04-28T12:08:49.808Z,25.65
2023-04-28T12:11:21.866Z,29.12
2023-04-28T12:14:05.711Z,23.65
2023-04-28T12:16:40.007Z,21.37
2023-04-28T12:19:11.017Z,18.37
2023-04-28T12:21:41.211Z,19.87
2023-04-28T12:24:19.410Z,13.20
2023-04-28T12:26:50.019Z,17.60
2023-04-28T12:29:39.964Z,14.07
2023-04-28T12:32:11.046Z,14.63
2023-04-28T12:34:42.060Z,13.43
2023-04-28T12:37:12.357Z,10.05
2023-04-28T12:39:42.623Z,10.23
2023-04-28T12:42:12.140Z,11.73
2023-04-28T12:44:41.889Z,12.18
2023-04-28T12:47:11.442Z,10.93
2023-04-28T12:49:41.683Z,10.05
2023-04-28T12:52:11.723Z,11.20
2023-04-28T12:54:42.635Z,9.70
2023-04-28T12:57:13.509Z,11.85
2023-04-28T12:59:43.039Z,10.68
2023-04-28T13:02:15.003Z,13.50
2023-04-28T13:04:46.131Z,14.00
2023-04-28T13:07:16.482Z,15.05
2023-04-28T13:09:47.735Z,17.80
2023-04-28T13:12:17.333Z,14.68
2023-04-28T13:14:47.265Z,14.38
2023-04-28T13:17:16.551Z,11.70
2023-04-28T13:19:46.637Z,10.63
2023-04-28T13:22:16.878Z,12.47
2023-04-28T13:24:47.031Z,10.75
2023-04-28T13:27:16.806Z,7.67
2023-04-28T13:29:46.414Z,7.58
2023-04-28T13:32:15.865Z,8.20
2023-04-28T13:34:46.156Z,6.03
2023-04-28T13:37:15.946Z,5.95
2023-04-28T13:39:45.689Z,6.30
2023-04-28T13:42:16.157Z,6.75
2023-04-28T13:44:47.660Z,11.45
2023-04-28T13:47:17.313Z,13.32
2023-04-28T13:49:47.910Z,17.42
2023-04-28T13:52:17.670Z,23.32
2023-04-28T13:54:47.205Z,23.32
2023-04-28T13:57:17.043Z,30.75
2023-04-28T13:59:46.384Z,29.52
2023-04-28T14:02:15.818Z,28.92
2023-04-28T14:04:47.224Z,28.87
2023-04-28T14:07:17.128Z,28.47
2023-04-28T14:09:46.980Z,28.32
2023-04-28T14:12:16.469Z,26.07
2023-04-28T14:14:49.498Z,24.98
2023-04-28T14:17:19.392Z,22.62
2023-04-28T14:19:48.766Z,23.15
2023-04-28T14:22:18.132Z,24.27
2023-04-28T14:24:47.853Z,22.02
2023-04-28T14:27:17.455Z,18.52
2023-04-28T14:29:48.669Z,19.60
2023-04-28T14:32:19.738Z,20.65
2023-04-28T14:34:51.340Z,17.77
2023-04-28T14:37:20.856Z,18.67
2023-04-28T14:39:50.410Z,18.20
2023-04-28T14:42:20.633Z,22.55
2023-04-28T14:44:50.641Z,20.68
2023-04-28T14:47:21.102Z,19.57
2023-04-28T14:49:52.413Z,18.45
2023-04-28T14:52:22.540Z,14.90
2023-04-28T14:54:52.786Z,14.63
2023-04-28T14:57:22.136Z,14.38
2023-04-28T14:59:52.304Z,21.50
2023-04-28T15:02:25.904Z,15.20
2023-04-28T15:04:57.195Z,16.10
2023-04-28T15:07:30.929Z,17.20
2023-04-28T15:10:01.018Z,16.35
2023-04-28T15:12:30.791Z,17.37
2023-04-28T15:15:00.521Z,17.62
2023-04-28T15:17:29.839Z,18.73
2023-04-28T15:19:59.529Z,16.05
2023-04-28T15:22:28.790Z,12.60
2023-04-28T15:24:58.147Z,12.33
2023-04-28T15:27:27.876Z,15.23
2023-04-28T15:29:57.530Z,15.03
2023-04-28T15:32:29.023Z,15.60
2023-04-28T15:34:58.053Z,15.95
2023-04-28T15:37:46.957Z,13.45
2023-04-28T15:40:17.532Z,16.02
2023-04-28T15:42:52.170Z,17.23
2023-04-28T15:45:22.903Z,14.30
2023-04-28T15:47:52.365Z,13.20
2023-04-28T15:50:24.045Z,13.83
2023-04-28T15:52:53.965Z,14.38
2023-04-28T15:55:24.973Z,12.70
2023-04-28T15:57:54.591Z,11.08
2023-04-28T16:00:24.557Z,15.00
2023-04-28T16:02:54.143Z,10.13
2023-04-28T16:05:23.666Z,12.53
2023-04-28T16:07:54.033Z,13.85
2023-04-28T16:10:23.587Z,11.90
2023-04-28T16:12:53.292Z,12.13
2023-04-28T16:15:23.197Z,15.48
2023-04-28T16:17:53.227Z,14.70
2023-04-28T16:20:22.729Z,15.50
2023-04-28T16:22:52.002Z,16.02
2023-04-28T16:25:21.380Z,13.85
2023-04-28T16:27:50.886Z,12.47
2023-04-28T16:30:20.651Z,11.48
2023-04-28T16:32:49.940Z,13.00
2023-04-28T16:35:19.569Z,11.48
2023-04-28T16:37:48.818Z,11.53
2023-04-28T16:40:18.173Z,10.93
2023-04-28T16:42:47.442Z,11.18
2023-04-28T16:45:17.288Z,11.50
2023-04-28T16:47:46.823Z,13.62
2023-04-28T16:50:16.556Z,11.83
2023-04-28T16:52:45.891Z,12.35
2023-04-28T16:55:15.561Z,10.50
2023-04-28T16:57:45.568Z,10.43
2023-04-28T17:00:16.033Z,9.75
2023-04-28T17:02:45.863Z,15.23
2023-04-28T17:05:15.293Z,11.60
2023-04-28T17:07:44.868Z,12.82
2023-04-28T17:10:14.318Z,13.68
2023-04-28T17:12:45.794Z,12.90
2023-04-28T17:15:19.135Z,13.78
2023-04-28T17:17:51.447Z,15.20
2023-04-28T17:20:21.607Z,19.02
2023-04-28T17:22:51.348Z,16.85
2023-04-28T17:25:22.312Z,18.02
2023-04-28T17:27:51.832Z,19.20
2023-04-28T17:30:21.146Z,18.80
2023-04-28T17:32:50.805Z,17.65
2023-04-28T17:35:20.334Z,20.32
2023-04-28T17:37:49.626Z,18.90
2023-04-28T17:40:19.851Z,20.92
2023-04-28T17:42:49.137Z,14.75
2023-04-28T17:45:18.575Z,16.32
2023-04-28T17:47:48.255Z,15.15
2023-04-28T17:50:17.646Z,12.33
2023-04-28T17:52:46.998Z,17.35
2023-04-28T17:55:16.339Z,16.17
2023-04-28T17:57:46.547Z,15.08
2023-04-28T18:00:16.008Z,15.38
2023-04-28T18:02:46.763Z,20.32
2023-04-28T18:05:17.544Z,20.17
2023-04-28T18:07:47.806Z,22.05
2023-04-28T18:10:17.521Z,25.97
2023-04-28T18:12:48.810Z,21.07
2023-04-28T18:15:25.713Z,23.40
2023-04-28T18:17:55.017Z,17.32
2023-04-28T18:20:24.560Z,17.98
2023-04-28T18:22:54.496Z,17.25
2023-04-28T18:25:24.318Z,19.27
2023-04-28T18:27:54.007Z,18.67
2023-04-28T18:30:23.447Z,19.85
2023-04-28T18:32:53.153Z,23.00
2023-04-28T18:35:22.658Z,18.32
2023-04-28T18:37:52.128Z,20.62
2023-04-28T18:40:21.562Z,26.05
2023-04-28T18:42:51.059Z,25.00
2023-04-28T18:45:20.449Z,29.12
2023-04-28T18:47:50.885Z,28.30
2023-04-28T18:50:20.514Z,29.55
2023-04-28T18:52:53.313Z,34.67
2023-04-28T18:55:22.837Z,37.33
2023-04-28T18:57:55.029Z,36.73
2023-04-28T19:00:24.733Z,38.65
2023-04-28T19:02:54.813Z,39.55
2023-04-28T19:05:24.657Z,39.55
2023-04-28T19:07:54.764Z,41.68
2023-04-28T19:10:25.063Z,48.85
2023-04-28T19:12:56.194Z,55.40
2023-04-28T19:15:25.946Z,58.33
2023-04-28T19:17:56.325Z,68.50
2023-04-28T19:20:26.324Z,66.45
2023-04-28T19:22:56.693Z,84.55
2023-04-28T19:25:26.061Z,86.17
2023-04-28T19:27:55.862Z,90.28
2023-04-28T19:30:25.593Z,93.20
2023-04-28T19:32:55.533Z,88.67
2023-04-28T19:35:25.223Z,89.67
2023-04-28T19:37:56.696Z,90.67
2023-04-28T19:40:27.761Z,90.77
2023-04-28T19:42:57.650Z,90.92
2023-04-28T19:45:27.201Z,89.20
2023-04-28T19:47:56.968Z,86.22
2023-04-28T19:50:26.977Z,86.37
2023-04-28T19:52:56.634Z,91.67
2023-04-28T19:55:26.332Z,86.80
2023-04-28T19:57:57.864Z,80.97
2023-04-28T20:00:29.886Z,90.57
2023-04-28T20:03:03.042Z,80.85
2023-04-28T20:05:32.878Z,78.20
2023-04-28T20:08:02.472Z,75.83
2023-04-28T20:10:31.876Z,69.85
2023-04-28T20:13:02.032Z,70.62
2023-04-28T20:15:31.803Z,72.03
2023-04-28T20:18:01.716Z,67.53
2023-04-28T20:20:30.982Z,57.08
2023-04-28T20:23:00.773Z,59.73
2023-04-28T20:25:30.307Z,58.68
2023-04-28T20:27:59.702Z,57.53
2023-04-28T20:30:29.109Z,55.65
2023-04-28T20:32:58.610Z,56.02
2023-04-28T20:35:28.210Z,57.70
2023-04-28T20:37:59.104Z,53.05
2023-04-28T20:40:28.456Z,57.08
2023-04-28T20:42:58.859Z,60.03
2023-04-28T20:45:28.230Z,63.33
2023-04-28T20:47:58.517Z,59.83
2023-04-28T20:50:29.972Z,64.60
2023-04-28T20:52:59.658Z,61.10
2023-04-28T20:55:29.565Z,66.95
2023-04-28T20:57:59.834Z,80.42
2023-04-28T21:00:29.455Z,69.40
2023-04-28T21:03:00.624Z,76.15
2023-04-28T21:05:30.574Z,65.22
2023-04-28T21:08:01.934Z,65.90
2023-04-28T21:10:32.508Z,71.12
2023-04-28T21:13:02.159Z,66.92
2023-04-28T21:15:35.132Z,71.85
2023-04-28T21:18:04.855Z,73.17
2023-04-28T21:20:34.926Z,72.15
2023-04-28T21:23:05.512Z,72.22
2023-04-28T21:25:36.739Z,72.55
2023-04-28T21:28:06.548Z,72.62
2023-04-28T21:30:36.182Z,70.47
2023-04-28T21:33:05.561Z,69.35
2023-04-28T21:35:35.820Z,70.37
2023-04-28T21:38:05.443Z,76.00
2023-04-28T21:40:34.934Z,73.75
2023-04-28T21:43:04.213Z,73.35
2023-04-28T21:45:34.086Z,72.97
2023-04-28T21:48:03.871Z,73.47
2023-04-28T21:50:33.240Z,69.92
2023-04-28T21:53:03.101Z,59.33
2023-04-28T21:55:32.555Z,65.62
2023-04-28T21:58:01.888Z,64.15
2023-04-28T22:00:31.730Z,64.15
2023-04-28T22:03:01.302Z,74.32
2023-04-28T22:05:30.757Z,64.55
2023-04-28T22:08:02.787Z,59.25
2023-04-28T22:10:33.882Z,61.53
2023-04-28T22:13:03.359Z,55.80
2023-04-28T22:15:32.921Z,61.90
2023-04-28T22:18:02.386Z,60.00
2023-04-28T22:20:32.579Z,58.50
2023-04-28T22:23:02.041Z,59.60
2023-04-28T22:25:31.942Z,62.75
2023-04-28T22:28:01.276Z,62.90
2023-04-28T22:30:32.504Z,63.68
2023-04-28T22:33:02.035Z,64.12
2023-04-28T22:35:31.358Z,62.17
2023-04-28T22:38:00.823Z,63.02
2023-04-28T22:40:30.097Z,67.22
2023-04-28T22:42:59.622Z,67.75
2023-04-28T22:45:28.889Z,68.87
2023-04-28T22:47:58.338Z,69.62
2023-04-28T22:50:28.922Z,60.70
2023-04-28T22:52:58.814Z,68.87
2023-04-28T22:55:28.110Z,61.33
2023-04-28T22:57:57.647Z,58.35
2023-04-28T23:00:26.895Z,57.80
2023-04-28T23:02:56.306Z,46.63
2023-04-28T23:05:25.833Z,45.90
2023-04-28T23:07:55.117Z,43.38
2023-04-28T23:10:24.416Z,39.35
2023-04-28T23:12:53.861Z,46.85
2023-04-28T23:15:23.302Z,41.92
2023-04-28T23:17:52.679Z,40.50
2023-04-28T23:20:22.359Z,37.90
2023-04-28T23:22:52.728Z,33.33
2023-04-28T23:25:22.696Z,36.13
2023-04-28T23:27:51.998Z,37.05
2023-04-28T23:30:22.120Z,39.35
2023-04-28T23:32:51.542Z,44.42
2023-04-28T23:35:21.105Z,38.10
2023-04-28T23:37:50.408Z,40.58
2023-04-28T23:40:20.192Z,40.03
2023-04-28T23:42:49.523Z,45.35
2023-04-28T23:45:19.124Z,41.37
2023-04-28T23:47:48.473Z,40.52
2023-04-28T23:50:18.213Z,39.98
2023-04-28T23:52:47.782Z,41.23
2023-04-28T23:55:17.227Z,39.73
2023-04-28T23:57:46.499Z,41.13
